createdAt,value
2023-03-29T12:25:39.579Z,40.85
2023-03-29T12:44:16.793Z,30.71
2023-03-29T13:05:02.278Z,24.94
2023-03-29T13:07:47.293Z,26.19
2023-03-29T13:10:38.348Z,25.02
2023-03-29T13:13:21.157Z,27.73
2023-03-29T13:15:54.975Z,32.84
2023-03-29T13:18:49.086Z,27.76
2023-03-29T13:21:51.771Z,24.70
2023-03-29T13:25:04.494Z,27.15
2023-03-29T13:27:57.683Z,26.52
2023-03-29T13:30:58.755Z,27.10
2023-03-29T13:33:59.111Z,24.75
2023-03-29T13:37:02.109Z,26.93
2023-03-29T14:05:50.191Z,31.71
2023-03-29T14:08:35.809Z,29.29
2023-03-29T14:11:15.927Z,32.42
2023-03-29T14:17:35.224Z,31.32
2023-03-29T14:23:50.226Z,29.95
2023-03-29T14:26:30.934Z,31.47
2023-03-29T14:29:04.092Z,31.58
2023-03-29T14:31:40.357Z,32.18
2023-03-29T14:34:30.312Z,30.87
2023-03-29T14:37:01.416Z,33.08
2023-03-29T14:40:06.196Z,33.42
2023-03-29T14:42:34.972Z,34.16
2023-03-29T14:45:13.852Z,34.00
2023-03-29T14:47:48.153Z,34.86
2023-03-29T14:50:32.106Z,32.74
2023-03-29T14:53:06.457Z,34.27
2023-03-29T14:55:44.070Z,32.44
2023-03-29T15:01:57.073Z,32.93
2023-03-29T15:04:41.117Z,33.33
2023-03-29T15:07:36.941Z,32.63
2023-03-29T15:10:25.781Z,33.90
2023-03-29T15:13:01.308Z,34.83
2023-03-29T15:16:00.455Z,35.14
2023-03-29T15:18:53.506Z,35.47
2023-03-29T15:21:28.173Z,35.96
2023-03-29T15:24:33.412Z,36.11
2023-03-29T15:27:19.710Z,36.57
2023-03-29T15:29:59.404Z,37.09
2023-03-29T21:15:41.750Z,47.95
2023-03-29T21:18:17.320Z,47.82
2023-03-29T21:20:53.476Z,47.83
2023-03-29T21:23:25.082Z,47.59
2023-03-29T21:25:56.332Z,47.39
2023-03-29T21:28:34.164Z,47.82
2023-03-29T21:31:26.621Z,47.85
2023-03-29T21:33:57.179Z,48.09
2023-03-29T21:36:27.780Z,47.47
2023-03-29T21:39:09.003Z,48.01
2023-03-29T21:41:41.823Z,48.02
2023-03-29T21:44:13.198Z,48.00
2023-03-29T21:46:59.339Z,48.01
2023-03-29T21:49:30.251Z,48.20
2023-03-29T21:52:03.532Z,47.86
2023-03-29T21:54:37.334Z,48.21
2023-03-29T21:57:14.753Z,48.21
2023-03-29T21:59:45.363Z,48.10
2023-03-29T22:02:31.099Z,47.99
2023-03-29T22:05:01.886Z,48.25
2023-03-29T22:07:35.397Z,48.42
2023-03-29T22:10:11.843Z,48.21
2023-03-29T22:12:43.886Z,48.33
2023-03-29T22:15:19.548Z,48.49
2023-03-29T22:17:53.210Z,48.37
2023-03-29T22:24:27.591Z,48.20
2023-03-29T22:26:58.138Z,48.17
2023-03-29T22:29:34.542Z,48.19
2023-03-29T22:32:05.413Z,48.58
2023-03-29T22:34:36.143Z,48.50
2023-03-29T22:37:06.665Z,48.37
2023-03-29T22:39:42.339Z,48.88
2023-03-29T22:42:12.871Z,48.33
2023-03-29T22:44:48.507Z,48.48
2023-03-29T22:47:19.974Z,48.73
2023-03-29T22:49:50.423Z,48.75
2023-03-29T22:52:20.899Z,48.70
2023-03-29T22:54:55.881Z,48.86
2023-03-29T22:57:26.531Z,48.80
2023-03-29T22:59:57.038Z,48.57
2023-03-29T23:02:27.678Z,48.91
2023-03-29T23:04:58.151Z,48.74
2023-03-29T23:07:29.136Z,49.03
2023-03-29T23:10:08.226Z,49.22
2023-03-29T23:12:54.016Z,49.20
2023-03-29T23:15:24.562Z,49.06
2023-03-29T23:17:55.697Z,49.03
2023-03-29T23:20:26.090Z,49.38
2023-03-29T23:22:56.612Z,49.33
2023-03-29T23:25:40.206Z,49.44
2023-03-29T23:28:13.755Z,49.52
2023-03-29T23:31:05.852Z,49.64
2023-03-29T23:33:41.740Z,49.59
2023-03-29T23:36:15.895Z,49.76
2023-03-29T23:38:52.836Z,49.58
2023-03-29T23:41:23.362Z,49.65
2023-03-29T23:43:58.022Z,49.84
2023-03-29T23:46:28.584Z,49.92
2023-03-29T23:49:05.650Z,49.74
2023-03-29T23:51:37.110Z,50.09
2023-03-29T23:54:07.439Z,49.94
2023-03-29T23:56:40.077Z,49.99
2023-03-29T23:59:11.028Z,50.21
